sensor_id;sensor_type;location;lat;lon;timestamp;pressure;altitude;pressure_sealevel;temperature;humidity
55517;BME280;41724;51.176;-0.708;2022-09-12T00:02:12;100972.78;;;20.51;52.09
55517;BME280;41724;51.176;-0.708;2022-09-12T00:04:39;100969.34;;;20.10;51.93
55517;BME280;41724;51.176;-0.708;2022-09-12T00:07:06;100963.82;;;20.41;51.60
55517;BME280;41724;51.176;-0.708;2022-09-12T00:09:33;100964.41;;;20.28;51.96
55517;BME280;41724;51.176;-0.708;2022-09-12T00:12:01;100959.15;;;20.15;51.82
55517;BME280;41724;51.176;-0.708;2022-09-12T00:14:28;100959.53;;;20.47;51.67
55517;BME280;41724;51.176;-0.708;2022-09-12T00:16:57;100962.01;;;20.37;51.32
55517;BME280;41724;51.176;-0.708;2022-09-12T00:19:24;100962.25;;;20.11;51.73
55517;BME280;41724;51.176;-0.708;2022-09-12T00:21:52;100960.86;;;20.43;51.53
55517;BME280;41724;51.176;-0.708;2022-09-12T00:24:19;100955.78;;;20.44;51.65
55517;BME280;41724;51.176;-0.708;2022-09-12T00:26:46;100954.84;;;20.38;51.73
55517;BME280;41724;51.176;-0.708;2022-09-12T00:29:15;100951.30;;;20.48;51.33
55517;BME280;41724;51.176;-0.708;2022-09-12T00:31:43;100948.00;;;20.38;51.58
55517;BME280;41724;51.176;-0.708;2022-09-12T00:34:10;100945.55;;;20.37;51.50
55517;BME280;41724;51.176;-0.708;2022-09-12T00:36:38;100942.01;;;20.32;51.44
55517;BME280;41724;51.176;-0.708;2022-09-12T00:39:06;100943.92;;;20.31;51.44
55517;BME280;41724;51.176;-0.708;2022-09-12T00:41:35;100944.23;;;20.19;51.80
55517;BME280;41724;51.176;-0.708;2022-09-12T00:44:42;100940.95;;;20.52;51.93
55517;BME280;41724;51.176;-0.708;2022-09-12T00:47:15;100939.25;;;20.43;51.98
55517;BME280;41724;51.176;-0.708;2022-09-12T00:49:49;100944.56;;;20.55;51.97
55517;BME280;41724;51.176;-0.708;2022-09-12T00:52:25;100942.69;;;20.50;52.63
55517;BME280;41724;51.176;-0.708;2022-09-12T00:54:57;100943.58;;;20.39;52.70
55517;BME280;41724;51.176;-0.708;2022-09-12T00:57:31;100943.98;;;20.64;52.40
55517;BME280;41724;51.176;-0.708;2022-09-12T01:00:05;100942.96;;;20.86;52.44
55517;BME280;41724;51.176;-0.708;2022-09-12T01:02:33;100941.02;;;20.69;52.30
55517;BME280;41724;51.176;-0.708;2022-09-12T01:05:01;100937.10;;;20.63;52.53
55517;BME280;41724;51.176;-0.708;2022-09-12T01:07:28;100936.55;;;20.84;52.59
55517;BME280;41724;51.176;-0.708;2022-09-12T01:09:56;100935.97;;;20.54;52.96
55517;BME280;41724;51.176;-0.708;2022-09-12T01:12:23;100937.23;;;20.76;52.72
55517;BME280;41724;51.176;-0.708;2022-09-12T01:14:51;100934.39;;;20.67;52.51
55517;BME280;41724;51.176;-0.708;2022-09-12T01:17:18;100934.30;;;20.97;52.44
55517;BME280;41724;51.176;-0.708;2022-09-12T01:20:10;100933.35;;;20.74;52.53
55517;BME280;41724;51.176;-0.708;2022-09-12T01:23:03;100929.71;;;21.09;52.32
55517;BME280;41724;51.176;-0.708;2022-09-12T01:25:37;100923.94;;;20.85;52.77
55517;BME280;41724;51.176;-0.708;2022-09-12T01:28:28;100924.57;;;20.97;52.61
55517;BME280;41724;51.176;-0.708;2022-09-12T01:31:02;100919.88;;;20.99;52.61
55517;BME280;41724;51.176;-0.708;2022-09-12T01:33:41;100914.04;;;21.23;52.59
55517;BME280;41724;51.176;-0.708;2022-09-12T01:36:29;100913.65;;;21.24;52.43
55517;BME280;41724;51.176;-0.708;2022-09-12T01:39:00;100912.84;;;21.02;52.57
55517;BME280;41724;51.176;-0.708;2022-09-12T01:41:33;100905.85;;;21.22;52.50
55517;BME280;41724;51.176;-0.708;2022-09-12T01:44:13;100902.13;;;21.04;52.22
55517;BME280;41724;51.176;-0.708;2022-09-12T01:46:47;100903.56;;;21.23;52.13
55517;BME280;41724;51.176;-0.708;2022-09-12T01:49:23;100899.73;;;21.26;52.26
55517;BME280;41724;51.176;-0.708;2022-09-12T01:51:55;100900.97;;;21.22;52.42
55517;BME280;41724;51.176;-0.708;2022-09-12T01:54:28;100900.30;;;21.25;52.36
55517;BME280;41724;51.176;-0.708;2022-09-12T01:57:00;100900.67;;;21.26;52.52
55517;BME280;41724;51.176;-0.708;2022-09-12T01:59:33;100902.61;;;21.11;52.51
55517;BME280;41724;51.176;-0.708;2022-09-12T02:02:06;100900.61;;;20.86;52.55
55517;BME280;41724;51.176;-0.708;2022-09-12T02:04:40;100903.50;;;21.31;52.90
55517;BME280;41724;51.176;-0.708;2022-09-12T02:07:13;100903.26;;;21.23;52.65
55517;BME280;41724;51.176;-0.708;2022-09-12T02:09:48;100894.83;;;21.63;52.81
55517;BME280;41724;51.176;-0.708;2022-09-12T02:12:22;100888.30;;;21.15;52.85
55517;BME280;41724;51.176;-0.708;2022-09-12T02:14:53;100879.39;;;21.06;52.81
55517;BME280;41724;51.176;-0.708;2022-09-12T02:17:24;100876.19;;;21.21;52.75
55517;BME280;41724;51.176;-0.708;2022-09-12T02:19:54;100877.51;;;21.03;52.84
55517;BME280;41724;51.176;-0.708;2022-09-12T02:22:25;100877.07;;;21.11;53.07
55517;BME280;41724;51.176;-0.708;2022-09-12T02:24:55;100876.39;;;21.08;53.41
55517;BME280;41724;51.176;-0.708;2022-09-12T02:27:29;100872.80;;;21.14;53.10
55517;BME280;41724;51.176;-0.708;2022-09-12T02:29:59;100873.29;;;20.81;53.99
55517;BME280;41724;51.176;-0.708;2022-09-12T02:32:30;100867.00;;;21.45;53.45
55517;BME280;41724;51.176;-0.708;2022-09-12T02:35:05;100865.55;;;21.23;53.48
55517;BME280;41724;51.176;-0.708;2022-09-12T02:37:44;100862.16;;;20.99;53.56
55517;BME280;41724;51.176;-0.708;2022-09-12T02:40:16;100856.46;;;20.87;53.89
55517;BME280;41724;51.176;-0.708;2022-09-12T02:42:43;100851.08;;;21.05;53.82
55517;BME280;41724;51.176;-0.708;2022-09-12T02:45:11;100847.55;;;21.31;53.84
55517;BME280;41724;51.176;-0.708;2022-09-12T02:47:44;100845.07;;;21.43;54.34
55517;BME280;41724;51.176;-0.708;2022-09-12T02:50:15;100845.56;;;21.40;53.81
55517;BME280;41724;51.176;-0.708;2022-09-12T02:52:43;100846.34;;;21.16;54.12
55517;BME280;41724;51.176;-0.708;2022-09-12T02:55:10;100837.00;;;20.77;54.64
55517;BME280;41724;51.176;-0.708;2022-09-12T02:57:37;100834.81;;;20.98;55.14
55517;BME280;41724;51.176;-0.708;2022-09-12T03:00:06;100835.42;;;21.06;54.99
55517;BME280;41724;51.176;-0.708;2022-09-12T03:02:44;100833.53;;;21.15;54.33
55517;BME280;41724;51.176;-0.708;2022-09-12T03:05:20;100833.88;;;21.37;55.21
55517;BME280;41724;51.176;-0.708;2022-09-12T03:08:07;100833.43;;;21.11;55.52
55517;BME280;41724;51.176;-0.708;2022-09-12T03:10:50;100834.69;;;21.34;55.05
55517;BME280;41724;51.176;-0.708;2022-09-12T03:13:32;100832.77;;;20.91;55.44
55517;BME280;41724;51.176;-0.708;2022-09-12T03:16:10;100835.60;;;21.07;55.19
55517;BME280;41724;51.176;-0.708;2022-09-12T03:18:55;100829.69;;;21.23;55.29
55517;BME280;41724;51.176;-0.708;2022-09-12T03:21:30;100826.14;;;21.00;55.30
55517;BME280;41724;51.176;-0.708;2022-09-12T03:24:10;100824.38;;;21.27;54.92
55517;BME280;41724;51.176;-0.708;2022-09-12T03:26:43;100823.08;;;21.06;55.71
55517;BME280;41724;51.176;-0.708;2022-09-12T03:29:12;100818.40;;;20.91;55.60
55517;BME280;41724;51.176;-0.708;2022-09-12T03:31:48;100818.25;;;20.96;55.10
55517;BME280;41724;51.176;-0.708;2022-09-12T03:34:16;100816.04;;;21.21;55.10
55517;BME280;41724;51.176;-0.708;2022-09-12T03:36:44;100816.94;;;21.23;55.21
55517;BME280;41724;51.176;-0.708;2022-09-12T03:39:11;100815.20;;;21.23;55.83
55517;BME280;41724;51.176;-0.708;2022-09-12T03:41:38;100815.11;;;20.61;56.16
55517;BME280;41724;51.176;-0.708;2022-09-12T03:44:05;100816.38;;;21.29;55.49
55517;BME280;41724;51.176;-0.708;2022-09-12T03:46:32;100812.97;;;20.95;55.89
55517;BME280;41724;51.176;-0.708;2022-09-12T03:49:00;100808.53;;;21.12;55.87
55517;BME280;41724;51.176;-0.708;2022-09-12T03:51:27;100801.73;;;20.64;57.02
55517;BME280;41724;51.176;-0.708;2022-09-12T03:53:55;100801.20;;;20.68;56.49
55517;BME280;41724;51.176;-0.708;2022-09-12T03:56:21;100794.75;;;20.91;56.18
55517;BME280;41724;51.176;-0.708;2022-09-12T03:58:48;100788.85;;;21.09;56.14
55517;BME280;41724;51.176;-0.708;2022-09-12T04:01:17;100788.80;;;21.16;55.66
55517;BME280;41724;51.176;-0.708;2022-09-12T04:03:47;100789.84;;;20.96;55.63
55517;BME280;41724;51.176;-0.708;2022-09-12T04:06:17;100788.53;;;21.26;55.38
55517;BME280;41724;51.176;-0.708;2022-09-12T04:08:49;100788.16;;;21.05;55.41
55517;BME280;41724;51.176;-0.708;2022-09-12T04:11:18;100783.23;;;21.26;55.70
55517;BME280;41724;51.176;-0.708;2022-09-12T04:13:46;100781.41;;;20.75;55.34
55517;BME280;41724;51.176;-0.708;2022-09-12T04:16:15;100781.27;;;21.17;54.69
55517;BME280;41724;51.176;-0.708;2022-09-12T04:18:42;100781.11;;;20.94;54.74
55517;BME280;41724;51.176;-0.708;2022-09-12T04:21:12;100783.51;;;21.49;54.53
55517;BME280;41724;51.176;-0.708;2022-09-12T04:23:40;100784.11;;;21.38;54.82
55517;BME280;41724;51.176;-0.708;2022-09-12T04:26:08;100787.56;;;21.26;54.43
55517;BME280;41724;51.176;-0.708;2022-09-12T04:28:37;100788.33;;;21.34;55.07
55517;BME280;41724;51.176;-0.708;2022-09-12T04:31:05;100785.15;;;21.45;55.09
55517;BME280;41724;51.176;-0.708;2022-09-12T04:33:33;100782.13;;;21.03;55.10
55517;BME280;41724;51.176;-0.708;2022-09-12T04:36:05;100776.68;;;21.61;54.70
55517;BME280;41724;51.176;-0.708;2022-09-12T04:38:34;100777.55;;;21.36;54.86
55517;BME280;41724;51.176;-0.708;2022-09-12T04:41:09;100780.86;;;21.57;54.91
55517;BME280;41724;51.176;-0.708;2022-09-12T04:43:36;100784.17;;;21.58;55.04
55517;BME280;41724;51.176;-0.708;2022-09-12T04:46:04;100786.44;;;21.32;55.09
55517;BME280;41724;51.176;-0.708;2022-09-12T04:48:32;100782.31;;;21.12;54.99
55517;BME280;41724;51.176;-0.708;2022-09-12T04:51:06;100780.65;;;21.18;54.66
55517;BME280;41724;51.176;-0.708;2022-09-12T04:53:34;100777.91;;;21.17;54.44
55517;BME280;41724;51.176;-0.708;2022-09-12T04:56:03;100777.77;;;21.13;54.44
55517;BME280;41724;51.176;-0.708;2022-09-12T04:58:32;100780.74;;;21.18;54.00
55517;BME280;41724;51.176;-0.708;2022-09-12T05:01:03;100781.78;;;21.37;53.61
55517;BME280;41724;51.176;-0.708;2022-09-12T05:03:31;100783.16;;;20.99;53.49
55517;BME280;41724;51.176;-0.708;2022-09-12T05:05:57;100781.82;;;20.92;53.46
55517;BME280;41724;51.176;-0.708;2022-09-12T05:08:24;100779.80;;;21.13;53.30
55517;BME280;41724;51.176;-0.708;2022-09-12T05:10:52;100783.59;;;21.04;53.43
55517;BME280;41724;51.176;-0.708;2022-09-12T05:13:19;100781.76;;;21.06;53.36
55517;BME280;41724;51.176;-0.708;2022-09-12T05:15:54;100779.55;;;21.19;53.34
55517;BME280;41724;51.176;-0.708;2022-09-12T05:18:21;100777.09;;;21.19;53.59
55517;BME280;41724;51.176;-0.708;2022-09-12T05:20:49;100774.13;;;20.76;53.71
55517;BME280;41724;51.176;-0.708;2022-09-12T05:23:16;100776.43;;;20.98;53.68
55517;BME280;41724;51.176;-0.708;2022-09-12T05:25:48;100773.95;;;20.44;53.83
55517;BME280;41724;51.176;-0.708;2022-09-12T05:28:15;100770.50;;;20.97;53.02
55517;BME280;41724;51.176;-0.708;2022-09-12T05:30:42;100773.66;;;20.90;53.43
55517;BME280;41724;51.176;-0.708;2022-09-12T05:33:09;100771.27;;;20.76;53.61
55517;BME280;41724;51.176;-0.708;2022-09-12T05:35:36;100774.36;;;20.69;53.65
55517;BME280;41724;51.176;-0.708;2022-09-12T05:38:04;100774.82;;;20.65;53.73
55517;BME280;41724;51.176;-0.708;2022-09-12T05:40:31;100779.54;;;20.69;53.74
55517;BME280;41724;51.176;-0.708;2022-09-12T05:42:59;100781.67;;;20.66;53.79
55517;BME280;41724;51.176;-0.708;2022-09-12T05:45:26;100778.38;;;20.67;53.68
55517;BME280;41724;51.176;-0.708;2022-09-12T05:47:53;100782.14;;;20.54;53.88
55517;BME280;41724;51.176;-0.708;2022-09-12T05:50:19;100779.70;;;20.53;54.11
55517;BME280;41724;51.176;-0.708;2022-09-12T05:52:47;100780.47;;;20.44;54.28
55517;BME280;41724;51.176;-0.708;2022-09-12T05:55:14;100781.18;;;20.44;54.26
55517;BME280;41724;51.176;-0.708;2022-09-12T05:57:43;100783.12;;;20.40;54.47
55517;BME280;41724;51.176;-0.708;2022-09-12T06:00:11;100779.78;;;20.37;54.68
55517;BME280;41724;51.176;-0.708;2022-09-12T06:02:38;100777.01;;;20.40;54.70
55517;BME280;41724;51.176;-0.708;2022-09-12T06:05:06;100779.64;;;20.36;55.04
55517;BME280;41724;51.176;-0.708;2022-09-12T06:07:33;100783.10;;;20.44;54.86
55517;BME280;41724;51.176;-0.708;2022-09-12T06:10:01;100786.42;;;20.51;54.74
55517;BME280;41724;51.176;-0.708;2022-09-12T06:12:28;100791.49;;;20.55;54.79
55517;BME280;41724;51.176;-0.708;2022-09-12T06:14:55;100788.11;;;20.65;54.59
55517;BME280;41724;51.176;-0.708;2022-09-12T06:17:23;100786.32;;;20.67;54.66
55517;BME280;41724;51.176;-0.708;2022-09-12T06:19:49;100789.61;;;20.65;54.72
55517;BME280;41724;51.176;-0.708;2022-09-12T06:22:16;100787.66;;;20.77;54.57
55517;BME280;41724;51.176;-0.708;2022-09-12T06:24:43;100784.41;;;20.82;54.44
55517;BME280;41724;51.176;-0.708;2022-09-12T06:27:10;100783.51;;;20.59;54.73
55517;BME280;41724;51.176;-0.708;2022-09-12T06:29:37;100779.88;;;20.86;54.50
55517;BME280;41724;51.176;-0.708;2022-09-12T06:32:04;100779.49;;;20.92;54.65
55517;BME280;41724;51.176;-0.708;2022-09-12T06:34:32;100781.85;;;21.01;54.61
55517;BME280;41724;51.176;-0.708;2022-09-12T06:36:59;100787.43;;;20.81;54.70
55517;BME280;41724;51.176;-0.708;2022-09-12T06:39:26;100792.02;;;21.00;54.88
55517;BME280;41724;51.176;-0.708;2022-09-12T06:41:53;100795.59;;;20.67;54.76
55517;BME280;41724;51.176;-0.708;2022-09-12T06:44:21;100795.18;;;20.73;54.92
55517;BME280;41724;51.176;-0.708;2022-09-12T06:46:48;100798.04;;;21.18;54.54
55517;BME280;41724;51.176;-0.708;2022-09-12T06:49:15;100797.92;;;21.01;54.67
55517;BME280;41724;51.176;-0.708;2022-09-12T06:51:43;100793.71;;;21.13;54.58
55517;BME280;41724;51.176;-0.708;2022-09-12T06:54:12;100798.40;;;21.26;54.82
55517;BME280;41724;51.176;-0.708;2022-09-12T06:56:40;100800.29;;;21.46;54.75
55517;BME280;41724;51.176;-0.708;2022-09-12T06:59:07;100795.95;;;21.55;54.77
55517;BME280;41724;51.176;-0.708;2022-09-12T07:01:34;100792.18;;;21.48;54.84
55517;BME280;41724;51.176;-0.708;2022-09-12T07:04:03;100794.82;;;21.82;54.95
55517;BME280;41724;51.176;-0.708;2022-09-12T07:06:34;100799.58;;;21.93;54.98
55517;BME280;41724;51.176;-0.708;2022-09-12T07:09:04;100805.04;;;21.58;54.99
55517;BME280;41724;51.176;-0.708;2022-09-12T07:11:33;100806.31;;;21.95;54.84
55517;BME280;41724;51.176;-0.708;2022-09-12T07:14:03;100804.18;;;22.00;55.03
55517;BME280;41724;51.176;-0.708;2022-09-12T07:16:30;100802.39;;;22.21;55.06
55517;BME280;41724;51.176;-0.708;2022-09-12T07:18:59;100799.18;;;21.95;55.13
55517;BME280;41724;51.176;-0.708;2022-09-12T07:21:26;100799.80;;;22.63;55.09
55517;BME280;41724;51.176;-0.708;2022-09-12T07:23:55;100798.37;;;22.51;55.21
55517;BME280;41724;51.176;-0.708;2022-09-12T07:26:24;100796.71;;;22.43;56.10
55517;BME280;41724;51.176;-0.708;2022-09-12T07:28:53;100795.82;;;22.58;56.19
55517;BME280;41724;51.176;-0.708;2022-09-12T07:31:22;100795.19;;;22.49;56.14
55517;BME280;41724;51.176;-0.708;2022-09-12T07:33:51;100790.54;;;22.49;56.02
55517;BME280;41724;51.176;-0.708;2022-09-12T07:36:20;100784.19;;;22.76;56.55
55517;BME280;41724;51.176;-0.708;2022-09-12T07:38:47;100775.68;;;22.73;56.30
55517;BME280;41724;51.176;-0.708;2022-09-12T07:41:16;100772.59;;;22.97;55.89
55517;BME280;41724;51.176;-0.708;2022-09-12T07:43:44;100774.94;;;23.15;55.46
55517;BME280;41724;51.176;-0.708;2022-09-12T07:46:11;100775.30;;;23.53;55.34
55517;BME280;41724;51.176;-0.708;2022-09-12T07:48:39;100784.82;;;23.06;55.81
55517;BME280;41724;51.176;-0.708;2022-09-12T07:51:08;100786.68;;;23.76;55.06
55517;BME280;41724;51.176;-0.708;2022-09-12T07:53:37;100790.67;;;23.09;55.89
55517;BME280;41724;51.176;-0.708;2022-09-12T07:56:06;100797.72;;;23.48;55.52
55517;BME280;41724;51.176;-0.708;2022-09-12T07:58:35;100797.16;;;23.73;55.10
55517;BME280;41724;51.176;-0.708;2022-09-12T08:01:03;100794.26;;;23.87;54.73
55517;BME280;41724;51.176;-0.708;2022-09-12T08:03:31;100796.14;;;24.13;54.43
55517;BME280;41724;51.176;-0.708;2022-09-12T08:06:02;100798.34;;;23.52;55.91
55517;BME280;41724;51.176;-0.708;2022-09-12T08:08:30;100800.83;;;23.62;56.05
55517;BME280;41724;51.176;-0.708;2022-09-12T08:10:58;100798.97;;;24.14;55.55
55517;BME280;41724;51.176;-0.708;2022-09-12T08:13:25;100795.31;;;24.07;55.45
55517;BME280;41724;51.176;-0.708;2022-09-12T08:15:57;100792.98;;;24.37;54.55
55517;BME280;41724;51.176;-0.708;2022-09-12T08:18:24;100791.06;;;24.20;54.25
55517;BME280;41724;51.176;-0.708;2022-09-12T08:20:56;100794.58;;;24.26;54.06
55517;BME280;41724;51.176;-0.708;2022-09-12T08:23:23;100794.44;;;24.40;54.45
55517;BME280;41724;51.176;-0.708;2022-09-12T08:25:53;100791.91;;;24.47;54.08
55517;BME280;41724;51.176;-0.708;2022-09-12T08:28:21;100781.78;;;24.71;53.03
55517;BME280;41724;51.176;-0.708;2022-09-12T08:30:48;100782.60;;;24.96;52.85
55517;BME280;41724;51.176;-0.708;2022-09-12T08:33:15;100772.05;;;24.95;52.54
55517;BME280;41724;51.176;-0.708;2022-09-12T08:35:42;100771.68;;;24.92;52.57
55517;BME280;41724;51.176;-0.708;2022-09-12T08:38:10;100780.31;;;25.24;52.14
55517;BME280;41724;51.176;-0.708;2022-09-12T08:40:43;100771.84;;;25.37;52.07
55517;BME280;41724;51.176;-0.708;2022-09-12T08:43:23;100766.42;;;25.12;53.30
55517;BME280;41724;51.176;-0.708;2022-09-12T08:46:01;100773.00;;;25.16;52.36
55517;BME280;41724;51.176;-0.708;2022-09-12T08:48:30;100782.90;;;25.08;52.94
55517;BME280;41724;51.176;-0.708;2022-09-12T08:50:58;100783.90;;;25.44;52.72
55517;BME280;41724;51.176;-0.708;2022-09-12T08:53:26;100781.53;;;25.10;53.26
55517;BME280;41724;51.176;-0.708;2022-09-12T08:55:57;100776.58;;;24.97;52.73
55517;BME280;41724;51.176;-0.708;2022-09-12T08:58:27;100777.25;;;24.97;52.63
55517;BME280;41724;51.176;-0.708;2022-09-12T09:01:02;100784.02;;;24.97;53.15
55517;BME280;41724;51.176;-0.708;2022-09-12T09:04:23;100786.87;;;25.54;52.03
55517;BME280;41724;51.176;-0.708;2022-09-12T09:07:17;100783.38;;;25.25;52.23
55517;BME280;41724;51.176;-0.708;2022-09-12T09:09:57;100775.03;;;25.78;51.72
55517;BME280;41724;51.176;-0.708;2022-09-12T09:12:33;100778.32;;;25.58;51.20
55517;BME280;41724;51.176;-0.708;2022-09-12T09:15:13;100775.11;;;25.76;50.85
55517;BME280;41724;51.176;-0.708;2022-09-12T09:17:50;100775.63;;;25.81;50.88
55517;BME280;41724;51.176;-0.708;2022-09-12T09:20:25;100761.03;;;25.56;51.56
55517;BME280;41724;51.176;-0.708;2022-09-12T09:22:58;100752.10;;;25.68;52.20
55517;BME280;41724;51.176;-0.708;2022-09-12T09:25:39;100760.12;;;25.70;51.55
55517;BME280;41724;51.176;-0.708;2022-09-12T09:28:16;100756.94;;;26.00;51.61
55517;BME280;41724;51.176;-0.708;2022-09-12T09:30:47;100753.91;;;25.73;51.27
55517;BME280;41724;51.176;-0.708;2022-09-12T09:33:21;100746.13;;;26.12;50.21
55517;BME280;41724;51.176;-0.708;2022-09-12T09:35:55;100735.55;;;26.11;51.31
55517;BME280;41724;51.176;-0.708;2022-09-12T09:38:26;100730.82;;;26.25;50.46
55517;BME280;41724;51.176;-0.708;2022-09-12T09:41:08;100729.97;;;26.40;50.86
55517;BME280;41724;51.176;-0.708;2022-09-12T09:43:41;100736.73;;;26.67;50.03
55517;BME280;41724;51.176;-0.708;2022-09-12T09:46:09;100738.60;;;26.65;49.33
55517;BME280;41724;51.176;-0.708;2022-09-12T09:48:37;100736.77;;;26.45;49.64
55517;BME280;41724;51.176;-0.708;2022-09-12T09:51:08;100731.80;;;26.61;49.40
55517;BME280;41724;51.176;-0.708;2022-09-12T09:53:39;100728.89;;;26.64;50.00
55517;BME280;41724;51.176;-0.708;2022-09-12T09:56:14;100724.41;;;26.11;49.49
55517;BME280;41724;51.176;-0.708;2022-09-12T09:58:46;100723.23;;;26.16;49.34
55517;BME280;41724;51.176;-0.708;2022-09-12T10:01:15;100722.90;;;26.62;49.81
55517;BME280;41724;51.176;-0.708;2022-09-12T10:03:48;100714.37;;;26.31;49.04
55517;BME280;41724;51.176;-0.708;2022-09-12T10:06:32;100713.82;;;26.45;48.79
55517;BME280;41724;51.176;-0.708;2022-09-12T10:09:20;100713.73;;;25.98;50.39
55517;BME280;41724;51.176;-0.708;2022-09-12T10:11:49;100714.02;;;25.88;49.58
55517;BME280;41724;51.176;-0.708;2022-09-12T10:14:32;100705.95;;;26.50;49.36
55517;BME280;41724;51.176;-0.708;2022-09-12T10:16:59;100713.58;;;26.82;49.63
55517;BME280;41724;51.176;-0.708;2022-09-12T10:19:34;100712.06;;;26.86;48.32
55517;BME280;41724;51.176;-0.708;2022-09-12T10:22:03;100707.76;;;26.98;47.63
55517;BME280;41724;51.176;-0.708;2022-09-12T10:24:33;100701.16;;;27.36;46.84
55517;BME280;41724;51.176;-0.708;2022-09-12T10:27:08;100699.77;;;27.52;46.68
55517;BME280;41724;51.176;-0.708;2022-09-12T10:29:44;100702.15;;;26.64;48.46
55517;BME280;41724;51.176;-0.708;2022-09-12T10:32:21;100694.25;;;27.09;47.84
55517;BME280;41724;51.176;-0.708;2022-09-12T10:34:53;100693.76;;;26.66;47.16
55517;BME280;41724;51.176;-0.708;2022-09-12T10:37:28;100691.92;;;27.06;47.27
55517;BME280;41724;51.176;-0.708;2022-09-12T10:39:58;100700.49;;;27.32;47.11
55517;BME280;41724;51.176;-0.708;2022-09-12T10:42:45;100700.20;;;26.84;47.06
55517;BME280;41724;51.176;-0.708;2022-09-12T10:45:23;100700.76;;;27.67;47.76
55517;BME280;41724;51.176;-0.708;2022-09-12T10:47:51;100698.61;;;27.38;45.11
55517;BME280;41724;51.176;-0.708;2022-09-12T10:50:21;100687.64;;;27.64;46.00
55517;BME280;41724;51.176;-0.708;2022-09-12T10:52:49;100686.21;;;27.91;45.58
55517;BME280;41724;51.176;-0.708;2022-09-12T10:55:16;100691.95;;;27.41;41.85
55517;BME280;41724;51.176;-0.708;2022-09-12T10:58:07;100701.56;;;26.96;42.74
55517;BME280;41724;51.176;-0.708;2022-09-12T11:00:46;100704.23;;;26.25;45.81
55517;BME280;41724;51.176;-0.708;2022-09-12T11:03:28;100700.23;;;26.58;45.18
55517;BME280;41724;51.176;-0.708;2022-09-12T11:06:02;100696.26;;;27.24;44.34
55517;BME280;41724;51.176;-0.708;2022-09-12T11:08:45;100695.69;;;27.04;44.87
55517;BME280;41724;51.176;-0.708;2022-09-12T11:11:35;100699.41;;;27.82;43.21
55517;BME280;41724;51.176;-0.708;2022-09-12T11:14:14;100706.90;;;25.62;45.81
55517;BME280;41724;51.176;-0.708;2022-09-12T11:16:54;100702.16;;;27.19;44.54
55517;BME280;41724;51.176;-0.708;2022-09-12T11:19:56;100700.27;;;26.77;45.02
55517;BME280;41724;51.176;-0.708;2022-09-12T11:22:36;100699.62;;;26.64;45.37
55517;BME280;41724;51.176;-0.708;2022-09-12T11:25:17;100713.51;;;27.11;43.57
55517;BME280;41724;51.176;-0.708;2022-09-12T11:28:01;100709.39;;;25.98;44.76
55517;BME280;41724;51.176;-0.708;2022-09-12T11:30:36;100710.85;;;25.96;46.19
55517;BME280;41724;51.176;-0.708;2022-09-12T11:33:23;100714.43;;;26.48;45.54
55517;BME280;41724;51.176;-0.708;2022-09-12T11:35:52;100713.07;;;25.37;43.83
55517;BME280;41724;51.176;-0.708;2022-09-12T11:38:36;100703.09;;;26.05;41.96
55517;BME280;41724;51.176;-0.708;2022-09-12T11:41:16;100703.74;;;25.74;41.37
55517;BME280;41724;51.176;-0.708;2022-09-12T11:43:48;100705.98;;;27.34;41.89
55517;BME280;41724;51.176;-0.708;2022-09-12T11:46:20;100698.27;;;27.77;39.41
55517;BME280;41724;51.176;-0.708;2022-09-12T11:48:56;100700.89;;;28.27;38.81
55517;BME280;41724;51.176;-0.708;2022-09-12T11:51:28;100697.41;;;28.06;39.44
55517;BME280;41724;51.176;-0.708;2022-09-12T11:54:02;100694.02;;;28.28;38.70
55517;BME280;41724;51.176;-0.708;2022-09-12T11:56:33;100691.71;;;28.51;38.19
55517;BME280;41724;51.176;-0.708;2022-09-12T11:59:10;100683.89;;;28.20;37.59
55517;BME280;41724;51.176;-0.708;2022-09-12T12:01:41;100691.05;;;28.39;40.53
55517;BME280;41724;51.176;-0.708;2022-09-12T12:04:11;100687.19;;;28.85;37.67
55517;BME280;41724;51.176;-0.708;2022-09-12T12:06:50;100686.77;;;28.91;37.69
55517;BME280;41724;51.176;-0.708;2022-09-12T12:09:20;100679.94;;;29.09;37.66
55517;BME280;41724;51.176;-0.708;2022-09-12T12:11:50;100678.06;;;29.49;36.52
55517;BME280;41724;51.176;-0.708;2022-09-12T12:14:21;100676.56;;;29.54;36.47
55517;BME280;41724;51.176;-0.708;2022-09-12T12:16:50;100671.67;;;29.36;35.89
55517;BME280;41724;51.176;-0.708;2022-09-12T12:19:31;100669.20;;;29.52;35.70
55517;BME280;41724;51.176;-0.708;2022-09-12T12:22:14;100663.80;;;29.83;35.67
55517;BME280;41724;51.176;-0.708;2022-09-12T12:26:58;100655.31;;;30.02;35.45
55517;BME280;41724;51.176;-0.708;2022-09-12T12:29:43;100647.74;;;29.65;35.79
55517;BME280;41724;51.176;-0.708;2022-09-12T12:32:20;100642.32;;;30.21;34.75
55517;BME280;41724;51.176;-0.708;2022-09-12T12:34:48;100645.00;;;29.41;36.26
55517;BME280;41724;51.176;-0.708;2022-09-12T12:40:07;100644.03;;;29.93;37.19
55517;BME280;41724;51.176;-0.708;2022-09-12T12:43:01;100642.93;;;29.49;36.17
55517;BME280;41724;51.176;-0.708;2022-09-12T12:46:37;100637.03;;;29.72;35.48
55517;BME280;41724;51.176;-0.708;2022-09-12T12:49:08;100640.71;;;29.77;38.45
55517;BME280;41724;51.176;-0.708;2022-09-12T12:51:48;100639.94;;;30.21;36.43
55517;BME280;41724;51.176;-0.708;2022-09-12T12:54:28;100646.73;;;29.61;37.98
55517;BME280;41724;51.176;-0.708;2022-09-12T12:57:01;100648.53;;;29.59;36.05
55517;BME280;41724;51.176;-0.708;2022-09-12T12:59:29;100647.42;;;30.31;36.96
55517;BME280;41724;51.176;-0.708;2022-09-12T13:01:58;100650.00;;;30.50;35.27
55517;BME280;41724;51.176;-0.708;2022-09-12T13:04:27;100644.57;;;31.04;33.67
55517;BME280;41724;51.176;-0.708;2022-09-12T13:06:59;100639.81;;;31.25;34.52
55517;BME280;41724;51.176;-0.708;2022-09-12T13:09:31;100636.04;;;31.31;34.80
55517;BME280;41724;51.176;-0.708;2022-09-12T13:12:02;100632.28;;;31.30;33.29